createdAt,value
2023-02-27T00:00:21.515Z,0.45
2023-02-27T00:02:50.463Z,0.55
2023-02-27T00:05:18.882Z,0.63
2023-02-27T00:07:46.236Z,0.40
2023-02-27T00:10:14.121Z,0.50
2023-02-27T00:12:42.650Z,0.50
2023-02-27T00:15:12.247Z,0.52
2023-02-27T00:17:39.789Z,0.50
2023-02-27T00:20:11.206Z,0.50
2023-02-27T00:22:40.000Z,0.60
2023-02-27T00:25:08.677Z,0.50
2023-02-27T00:27:37.134Z,0.50
2023-02-27T00:30:07.167Z,0.35
2023-02-27T00:32:36.874Z,0.70
2023-02-27T00:35:09.338Z,0.60
2023-02-27T00:37:38.005Z,0.55
2023-02-27T00:40:06.482Z,0.40
2023-02-27T00:42:33.970Z,0.60
2023-02-27T00:45:03.038Z,0.50
2023-02-27T00:47:32.526Z,0.50
2023-02-27T00:49:59.973Z,0.70
2023-02-27T00:52:27.865Z,0.40
2023-02-27T00:54:55.184Z,0.50
2023-02-27T00:57:23.074Z,0.30
2023-02-27T00:59:50.682Z,0.40
2023-02-27T01:02:18.472Z,0.52
2023-02-27T01:04:45.805Z,0.50
2023-02-27T01:07:13.788Z,0.40
2023-02-27T01:09:40.959Z,0.63
2023-02-27T01:12:08.533Z,0.50
2023-02-27T01:14:36.502Z,0.60
2023-02-27T01:17:03.981Z,0.50
2023-02-27T01:19:32.235Z,0.50
2023-02-27T01:21:59.563Z,0.50
2023-02-27T01:24:26.893Z,0.50
2023-02-27T01:26:54.200Z,0.68
2023-02-27T01:29:21.458Z,0.80
2023-02-27T01:31:49.244Z,0.45
2023-02-27T01:34:17.229Z,0.45
2023-02-27T01:36:44.675Z,0.40
2023-02-27T01:39:12.076Z,1.30
2023-02-27T01:41:40.632Z,0.35
2023-02-27T01:44:11.288Z,0.60
2023-02-27T01:46:38.815Z,0.50
2023-02-27T01:49:15.985Z,0.50
2023-02-27T01:51:50.889Z,0.30
2023-02-27T01:54:26.175Z,0.45
2023-02-27T01:56:53.797Z,0.40
2023-02-27T01:59:22.030Z,0.40
2023-02-27T02:01:51.711Z,0.40
2023-02-27T02:04:31.277Z,0.40
2023-02-27T02:07:05.135Z,0.50
2023-02-27T02:09:36.313Z,0.35
2023-02-27T02:12:04.618Z,0.43
2023-02-27T02:14:32.089Z,0.30
2023-02-27T02:17:17.104Z,0.40
2023-02-27T02:19:50.160Z,0.65
2023-02-27T02:22:54.899Z,0.60
2023-02-27T02:26:13.355Z,0.50
2023-02-27T02:28:52.341Z,0.40
2023-02-27T02:31:47.363Z,0.40
2023-02-27T02:37:27.017Z,0.57
2023-02-27T02:40:06.598Z,0.63
2023-02-27T02:43:05.851Z,0.70
2023-02-27T02:45:45.288Z,0.70
2023-02-27T02:48:33.139Z,0.60
2023-02-27T02:51:39.933Z,0.65
2023-02-27T02:54:19.479Z,0.60
2023-02-27T02:57:05.590Z,0.88
2023-02-27T02:59:53.639Z,0.50
2023-02-27T03:02:28.393Z,0.88
2023-02-27T03:05:06.776Z,0.60
2023-02-27T03:07:43.390Z,0.60
2023-02-27T03:10:27.553Z,0.50
2023-02-27T03:13:08.924Z,0.70
2023-02-27T03:16:24.973Z,0.63
2023-02-27T03:19:04.204Z,1.05
2023-02-27T03:21:56.821Z,0.90
2023-02-27T03:24:30.267Z,1.00
2023-02-27T03:27:03.145Z,0.50
2023-02-27T03:29:46.773Z,0.70
2023-02-27T03:32:21.812Z,0.63
2023-02-27T03:34:49.714Z,0.60
2023-02-27T03:37:27.377Z,0.50
2023-02-27T03:40:25.167Z,0.70
2023-02-27T03:43:12.643Z,0.93
2023-02-27T03:46:10.499Z,0.75
2023-02-27T03:48:38.586Z,0.60
2023-02-27T03:51:05.909Z,0.60
2023-02-27T03:54:05.104Z,0.60
2023-02-27T03:56:40.529Z,0.70
2023-02-27T03:59:08.375Z,0.50
2023-02-27T04:01:39.113Z,0.52
2023-02-27T04:04:13.694Z,0.85
2023-02-27T04:07:25.176Z,0.50
2023-02-27T04:10:13.607Z,0.70
2023-02-27T04:13:05.064Z,0.50
2023-02-27T04:16:01.834Z,0.63
2023-02-27T04:18:46.976Z,0.40
2023-02-27T04:21:39.798Z,0.60
2023-02-27T04:24:16.222Z,0.50
2023-02-27T04:26:53.506Z,0.65
2023-02-27T04:29:24.699Z,1.05
2023-02-27T04:32:02.612Z,0.65
2023-02-27T04:34:40.478Z,0.80
2023-02-27T04:37:15.676Z,0.60
2023-02-27T04:40:00.755Z,0.70
2023-02-27T04:42:34.285Z,0.70
2023-02-27T04:45:07.869Z,0.57
2023-02-27T04:47:42.391Z,2.47
2023-02-27T04:50:24.668Z,0.60
2023-02-27T04:53:00.163Z,0.68
2023-02-27T04:55:33.078Z,0.63
2023-02-27T04:58:10.424Z,0.50
2023-02-27T05:00:40.121Z,0.80
2023-02-27T05:03:27.053Z,0.70
2023-02-27T05:06:00.166Z,0.55
2023-02-27T05:08:35.076Z,0.70
2023-02-27T05:11:14.938Z,0.68
2023-02-27T05:13:47.596Z,0.80
2023-02-27T05:16:46.735Z,0.60
2023-02-27T05:19:14.356Z,0.75
2023-02-27T05:21:53.908Z,0.70
2023-02-27T05:24:36.102Z,0.70
2023-02-27T05:27:21.637Z,0.68
2023-02-27T05:30:15.683Z,1.75
2023-02-27T05:32:48.834Z,2.07
2023-02-27T05:35:34.329Z,0.65
2023-02-27T05:38:06.700Z,0.65
2023-02-27T05:40:48.583Z,0.73
2023-02-27T05:43:22.936Z,0.80
2023-02-27T05:48:22.428Z,0.60
2023-02-27T05:50:52.836Z,0.60
2023-02-27T05:53:22.311Z,0.60
2023-02-27T05:55:53.632Z,0.80
2023-02-27T05:58:32.691Z,0.70
2023-02-27T06:01:02.655Z,0.80
2023-02-27T06:03:33.261Z,0.60
2023-02-27T06:06:03.671Z,0.90
2023-02-27T06:08:31.267Z,0.73
2023-02-27T06:10:58.781Z,0.73
2023-02-27T06:13:26.569Z,0.68
2023-02-27T06:15:54.322Z,0.63
2023-02-27T06:18:22.445Z,0.98
2023-02-27T06:20:50.163Z,0.70
2023-02-27T06:23:17.797Z,0.80
2023-02-27T06:25:45.118Z,0.80
2023-02-27T06:28:12.473Z,0.90
2023-02-27T06:30:39.800Z,0.85
2023-02-27T06:33:07.220Z,0.70
2023-02-27T06:35:34.637Z,0.80
2023-02-27T06:38:11.991Z,0.88
2023-02-27T06:40:40.229Z,0.90
2023-02-27T06:43:07.495Z,0.80
2023-02-27T06:45:34.671Z,0.93
2023-02-27T06:48:01.848Z,1.00
2023-02-27T06:50:29.524Z,1.15
2023-02-27T06:52:56.806Z,0.75
2023-02-27T06:55:25.766Z,0.82
2023-02-27T06:57:53.090Z,0.85
2023-02-27T07:00:20.764Z,1.20
2023-02-27T07:02:48.065Z,1.00
2023-02-27T07:05:15.373Z,0.98
2023-02-27T07:07:42.922Z,1.30
2023-02-27T07:10:12.979Z,0.98
2023-02-27T07:12:40.683Z,1.00
2023-02-27T07:15:09.067Z,1.25
2023-02-27T07:17:36.814Z,1.23
2023-02-27T07:20:06.681Z,1.40
2023-02-27T07:22:34.211Z,1.25
2023-02-27T07:25:01.619Z,1.30
2023-02-27T07:27:29.346Z,1.10
2023-02-27T07:29:56.551Z,1.23
2023-02-27T07:32:23.782Z,1.50
2023-02-27T07:34:51.024Z,1.27
2023-02-27T07:37:18.244Z,1.10
2023-02-27T07:39:45.444Z,1.25
2023-02-27T07:42:13.128Z,1.25
2023-02-27T07:44:40.822Z,1.15
2023-02-27T07:47:08.177Z,1.33
2023-02-27T07:49:35.386Z,1.85
2023-02-27T07:52:02.804Z,0.80
2023-02-27T07:54:30.007Z,1.35
2023-02-27T07:56:57.186Z,1.08
2023-02-27T07:59:24.494Z,1.75
2023-02-27T08:01:51.826Z,1.83
2023-02-27T08:04:19.068Z,1.83
2023-02-27T08:06:46.455Z,2.80
2023-02-27T08:09:13.673Z,3.15
2023-02-27T08:11:41.021Z,2.45
2023-02-27T08:14:08.234Z,2.17
2023-02-27T08:16:35.510Z,2.15
2023-02-27T08:19:02.933Z,2.35
2023-02-27T08:21:30.721Z,1.90
2023-02-27T08:23:58.765Z,1.65
2023-02-27T08:26:26.608Z,2.17
2023-02-27T08:28:54.116Z,1.60
2023-02-27T08:31:21.352Z,1.33
2023-02-27T08:33:55.323Z,1.35
2023-02-27T08:36:25.664Z,1.52
2023-02-27T08:38:53.029Z,1.50
2023-02-27T08:41:20.237Z,1.67
2023-02-27T08:43:47.476Z,0.95
2023-02-27T08:46:14.751Z,1.30
2023-02-27T08:48:42.783Z,1.50
2023-02-27T08:51:10.470Z,1.48
2023-02-27T08:53:37.679Z,1.50
2023-02-27T08:56:04.989Z,1.52
2023-02-27T08:58:32.159Z,1.13
2023-02-27T09:00:59.382Z,1.73
2023-02-27T09:03:28.851Z,1.00
2023-02-27T09:05:56.245Z,1.35
2023-02-27T09:08:24.125Z,1.95
2023-02-27T09:10:51.486Z,1.02
2023-02-27T09:13:19.777Z,1.23
2023-02-27T09:15:47.939Z,3.53
2023-02-27T09:18:15.459Z,6.10
2023-02-27T09:20:42.818Z,5.90
2023-02-27T09:23:10.025Z,6.78
2023-02-27T09:25:37.622Z,6.10
2023-02-27T09:28:04.922Z,5.30
2023-02-27T09:30:33.363Z,6.75
2023-02-27T09:33:00.734Z,8.75
2023-02-27T09:35:28.084Z,9.48
2023-02-27T09:37:58.435Z,10.93
2023-02-27T09:40:29.511Z,11.77
2023-02-27T09:43:01.109Z,13.05
2023-02-27T09:45:30.728Z,9.98
2023-02-27T09:48:08.584Z,7.15
2023-02-27T09:50:50.404Z,5.85
2023-02-27T09:53:27.715Z,2.90
2023-02-27T09:56:24.106Z,2.83
2023-02-27T09:58:57.441Z,2.83
2023-02-27T10:01:40.283Z,2.17
2023-02-27T10:04:26.927Z,1.63
2023-02-27T10:06:57.020Z,0.80
2023-02-27T10:09:42.390Z,1.40
2023-02-27T10:12:21.114Z,0.93
2023-02-27T10:14:53.581Z,2.40
2023-02-27T10:17:28.802Z,3.33
2023-02-27T10:19:57.756Z,3.63
2023-02-27T10:22:36.453Z,1.45
2023-02-27T10:25:18.118Z,1.40
2023-02-27T10:27:58.835Z,1.30
2023-02-27T10:30:32.885Z,1.15
2023-02-27T10:33:19.258Z,1.75
2023-02-27T10:35:47.002Z,3.35
2023-02-27T10:38:29.426Z,2.42
2023-02-27T10:40:59.312Z,1.52
2023-02-27T10:43:26.643Z,1.20
2023-02-27T10:45:54.633Z,2.25
2023-02-27T10:48:23.199Z,2.67
2023-02-27T10:50:54.138Z,2.42
2023-02-27T10:53:28.079Z,1.27
2023-02-27T10:56:04.523Z,1.70
2023-02-27T10:58:35.660Z,1.75
2023-02-27T11:01:06.350Z,1.05
2023-02-27T11:03:40.550Z,1.05
2023-02-27T11:06:26.769Z,0.90
2023-02-27T11:09:26.493Z,0.88
2023-02-27T11:11:54.122Z,0.85
2023-02-27T11:14:29.208Z,1.10
2023-02-27T11:16:59.592Z,1.25
2023-02-27T11:19:31.483Z,1.00
2023-02-27T11:22:17.197Z,0.70
2023-02-27T11:24:45.007Z,0.70
2023-02-27T11:27:29.062Z,0.90
2023-02-27T11:30:00.170Z,0.53
2023-02-27T11:32:45.643Z,0.77
2023-02-27T11:35:33.115Z,0.98
2023-02-27T11:38:07.196Z,0.80
2023-02-27T11:40:39.515Z,0.65
2023-02-27T11:43:19.958Z,0.50
2023-02-27T11:46:16.673Z,0.60
2023-02-27T11:49:03.849Z,0.50
2023-02-27T11:51:52.077Z,0.50
2023-02-27T11:54:25.427Z,0.68
2023-02-27T11:57:04.811Z,0.60
2023-02-27T11:59:48.462Z,0.50
2023-02-27T12:02:19.725Z,0.50
2023-02-27T12:05:12.352Z,0.50
2023-02-27T12:07:49.085Z,0.50
2023-02-27T12:10:20.956Z,0.60
2023-02-27T12:13:16.974Z,0.60
2023-02-27T12:16:11.191Z,0.30
2023-02-27T12:18:47.712Z,0.50
2023-02-27T12:21:23.878Z,0.40
2023-02-27T12:24:00.897Z,0.40
2023-02-27T12:26:38.206Z,0.50
2023-02-27T12:29:13.690Z,0.63
2023-02-27T12:32:07.789Z,0.70
2023-02-27T12:34:39.264Z,0.95
2023-02-27T12:37:13.028Z,0.40
2023-02-27T12:39:43.192Z,0.50
2023-02-27T12:42:24.583Z,1.17
2023-02-27T12:44:54.672Z,0.30
2023-02-27T12:47:44.127Z,0.40
2023-02-27T12:50:21.533Z,1.02
2023-02-27T12:53:13.440Z,1.50
2023-02-27T12:55:52.710Z,1.20
2023-02-27T12:58:41.699Z,1.50
2023-02-27T13:01:32.685Z,6.75
2023-02-27T13:04:15.713Z,10.23
2023-02-27T13:06:51.841Z,4.90
2023-02-27T13:09:25.905Z,2.38
2023-02-27T13:12:14.631Z,2.22
2023-02-27T13:14:50.273Z,0.90
2023-02-27T13:17:19.704Z,11.63
2023-02-27T13:20:23.993Z,7.65
2023-02-27T13:23:11.224Z,3.25
2023-02-27T13:25:40.701Z,1.33
2023-02-27T13:28:18.027Z,1.13
2023-02-27T13:31:01.340Z,1.85
2023-02-27T13:33:43.636Z,1.10
2023-02-27T13:36:18.700Z,2.20
2023-02-27T13:38:51.633Z,1.80
2023-02-27T13:41:29.107Z,0.93
2023-02-27T13:44:20.511Z,0.60
2023-02-27T13:46:48.080Z,1.05
2023-02-27T13:49:29.571Z,0.60
2023-02-27T13:52:00.382Z,0.40
2023-02-27T13:54:33.474Z,0.60
2023-02-27T13:57:18.823Z,0.47
2023-02-27T13:59:56.915Z,0.82
2023-02-27T14:02:31.615Z,0.88
2023-02-27T14:05:03.634Z,0.40
2023-02-27T14:07:47.434Z,0.50
2023-02-27T14:10:22.388Z,0.60
2023-02-27T14:12:50.833Z,0.60
2023-02-27T14:15:18.036Z,0.60
2023-02-27T14:17:46.874Z,0.40
2023-02-27T14:20:27.327Z,0.50
2023-02-27T14:23:26.508Z,0.82
2023-02-27T14:26:02.243Z,0.70
2023-02-27T14:28:51.851Z,0.40
2023-02-27T14:31:32.821Z,0.75
2023-02-27T14:34:05.923Z,0.40
2023-02-27T14:36:40.430Z,0.35
2023-02-27T14:39:18.092Z,1.20
2023-02-27T14:41:57.419Z,0.32
2023-02-27T14:44:36.671Z,0.70
2023-02-27T14:47:04.575Z,0.63
2023-02-27T14:49:34.106Z,0.57
2023-02-27T14:52:22.025Z,0.45
2023-02-27T14:54:50.327Z,0.40
2023-02-27T14:57:21.425Z,0.30
2023-02-27T14:59:51.953Z,0.40
2023-02-27T15:02:22.161Z,0.47
2023-02-27T15:05:15.940Z,0.68
2023-02-27T15:07:47.464Z,0.30
2023-02-27T15:10:24.830Z,0.40
2023-02-27T15:12:52.547Z,0.30
2023-02-27T15:15:21.928Z,0.28
2023-02-27T15:17:52.921Z,0.35
2023-02-27T15:20:31.158Z,0.30
2023-02-27T15:22:59.812Z,0.40
2023-02-27T15:25:35.108Z,0.40
2023-02-27T15:28:32.136Z,0.40
2023-02-27T15:30:59.496Z,0.20
2023-02-27T15:33:32.961Z,0.40
2023-02-27T15:36:01.480Z,0.30
2023-02-27T15:38:35.187Z,0.30
2023-02-27T15:41:04.032Z,0.60
2023-02-27T15:43:32.415Z,0.40
2023-02-27T15:46:00.217Z,0.45
2023-02-27T15:48:27.801Z,0.30
2023-02-27T15:50:58.406Z,0.60
2023-02-27T15:53:28.032Z,0.40
2023-02-27T15:56:01.909Z,0.40
2023-02-27T15:58:30.501Z,0.63
2023-02-27T16:01:01.060Z,0.30
2023-02-27T16:03:38.114Z,0.50
2023-02-27T16:06:27.793Z,0.20
2023-02-27T16:09:07.675Z,0.35
2023-02-27T16:11:37.521Z,0.32
2023-02-27T16:14:06.135Z,0.32
2023-02-27T16:16:39.008Z,0.80
2023-02-27T16:19:15.437Z,0.47
2023-02-27T16:22:07.232Z,0.40
2023-02-27T16:24:34.785Z,0.30
2023-02-27T16:27:02.129Z,0.43
2023-02-27T16:29:36.726Z,0.60
2023-02-27T16:34:45.415Z,0.30
2023-02-27T16:37:30.605Z,0.35
2023-02-27T16:39:58.224Z,0.32
2023-02-27T16:42:25.757Z,0.30
2023-02-27T16:44:52.945Z,0.30
2023-02-27T16:47:20.215Z,0.43
2023-02-27T16:49:49.515Z,0.30
2023-02-27T16:52:16.869Z,0.20
2023-02-27T16:54:44.246Z,0.38
2023-02-27T16:57:11.969Z,0.32
2023-02-27T16:59:41.158Z,0.32
2023-02-27T17:02:13.488Z,0.28
2023-02-27T17:04:46.830Z,0.40
2023-02-27T17:07:16.933Z,0.60
2023-02-27T17:09:45.599Z,0.40
2023-02-27T17:12:13.395Z,0.70
2023-02-27T17:14:40.902Z,0.30
2023-02-27T17:17:08.464Z,0.52
2023-02-27T17:19:35.721Z,1.33
2023-02-27T17:22:03.238Z,5.10
2023-02-27T17:24:30.811Z,1.45
2023-02-27T17:26:58.024Z,0.80
2023-02-27T17:29:25.305Z,1.05
2023-02-27T17:31:53.038Z,1.23
2023-02-27T17:34:20.387Z,0.80
2023-02-27T17:36:49.173Z,0.70
2023-02-27T17:39:17.072Z,3.75
2023-02-27T17:41:44.626Z,2.00
2023-02-27T17:44:12.735Z,1.10
2023-02-27T17:46:40.932Z,0.90
2023-02-27T17:49:08.284Z,0.90
2023-02-27T17:51:35.592Z,0.70
2023-02-27T17:54:05.530Z,0.70
2023-02-27T17:56:34.049Z,0.63
2023-02-27T17:59:02.938Z,1.00
2023-02-27T18:01:30.432Z,0.63
2023-02-27T18:03:57.954Z,1.17
2023-02-27T18:06:25.414Z,1.13
2023-02-27T18:08:52.692Z,1.80
2023-02-27T18:11:21.575Z,0.90
2023-02-27T18:13:49.231Z,1.20
2023-02-27T18:16:17.606Z,0.90
2023-02-27T18:18:45.990Z,1.95
2023-02-27T18:21:23.182Z,2.97
2023-02-27T18:23:51.999Z,1.00
2023-02-27T18:26:29.876Z,1.67
2023-02-27T18:29:07.028Z,0.70
2023-02-27T18:31:39.851Z,2.95
2023-02-27T18:34:07.847Z,4.72
2023-02-27T18:36:35.674Z,2.28
2023-02-27T18:39:05.117Z,1.85
2023-02-27T18:41:32.656Z,1.83
2023-02-27T18:44:00.061Z,1.52
2023-02-27T18:46:27.905Z,1.23
2023-02-27T18:48:55.532Z,2.10
2023-02-27T18:51:22.937Z,1.75
2023-02-27T18:53:50.606Z,1.73
2023-02-27T18:56:21.348Z,3.10
2023-02-27T18:58:49.325Z,2.35
2023-02-27T19:01:20.864Z,1.17
2023-02-27T19:03:48.783Z,1.20
2023-02-27T19:06:16.219Z,1.08
2023-02-27T19:08:43.782Z,1.27
2023-02-27T19:11:11.137Z,0.68
2023-02-27T19:13:38.401Z,0.70
2023-02-27T19:16:06.148Z,0.60
2023-02-27T19:18:33.466Z,1.27
2023-02-27T19:21:05.651Z,0.82
2023-02-27T19:23:32.835Z,1.73
2023-02-27T19:26:01.066Z,1.33
2023-02-27T19:28:28.339Z,3.28
2023-02-27T19:30:55.815Z,2.60
2023-02-27T19:33:23.302Z,1.30
2023-02-27T19:35:50.938Z,1.10
2023-02-27T19:38:18.215Z,0.75
2023-02-27T19:40:45.552Z,0.70
2023-02-27T19:43:15.526Z,0.77
2023-02-27T19:45:43.110Z,1.08
2023-02-27T19:48:12.113Z,0.77
2023-02-27T19:50:40.484Z,0.75
2023-02-27T19:53:08.303Z,0.60
2023-02-27T19:55:35.640Z,0.60
2023-02-27T19:58:03.032Z,0.43
2023-02-27T20:00:31.520Z,0.80
2023-02-27T20:02:58.968Z,0.60
2023-02-27T20:05:26.321Z,0.57
2023-02-27T20:07:53.856Z,0.52
2023-02-27T20:10:21.534Z,0.50
2023-02-27T20:12:48.821Z,0.45
2023-02-27T20:15:18.286Z,0.70
2023-02-27T20:17:45.564Z,0.30
2023-02-27T20:20:16.594Z,0.50
2023-02-27T20:22:44.931Z,0.50
2023-02-27T20:25:12.563Z,0.50
2023-02-27T20:27:43.045Z,0.40
2023-02-27T20:30:12.351Z,0.40
2023-02-27T20:32:39.745Z,0.57
2023-02-27T20:35:11.176Z,0.65
2023-02-27T20:37:39.318Z,1.65
2023-02-27T20:40:08.508Z,0.80
2023-02-27T20:42:36.586Z,0.55
2023-02-27T20:45:05.467Z,1.00
2023-02-27T20:47:32.824Z,0.57
2023-02-27T20:50:00.197Z,0.50
2023-02-27T20:52:27.478Z,0.50
2023-02-27T20:54:55.587Z,0.45
2023-02-27T20:57:22.818Z,0.40
2023-02-27T20:59:50.455Z,0.40
2023-02-27T21:02:17.828Z,0.30
2023-02-27T21:04:47.629Z,0.88
2023-02-27T21:07:17.633Z,0.98
2023-02-27T21:09:45.860Z,0.50
2023-02-27T21:12:13.662Z,0.50
2023-02-27T21:14:44.337Z,0.55
2023-02-27T21:17:12.722Z,0.93
2023-02-27T21:19:40.106Z,0.70
2023-02-27T21:22:11.122Z,0.60
2023-02-27T21:24:38.578Z,0.57
2023-02-27T21:27:06.343Z,0.60
2023-02-27T21:29:33.869Z,0.60
2023-02-27T21:32:01.333Z,0.50
2023-02-27T21:34:29.447Z,0.60
2023-02-27T21:36:56.756Z,0.60
2023-02-27T21:39:28.383Z,0.40
2023-02-27T21:41:56.073Z,0.50
2023-02-27T21:44:25.264Z,0.47
2023-02-27T21:46:53.649Z,0.55
2023-02-27T21:49:23.762Z,0.50
2023-02-27T21:51:51.173Z,0.70
2023-02-27T21:54:19.596Z,0.60
2023-02-27T21:56:48.511Z,1.42
2023-02-27T21:59:17.019Z,0.50
2023-02-27T22:01:47.573Z,0.70
2023-02-27T22:04:16.773Z,0.45
2023-02-27T22:06:44.338Z,0.63
2023-02-27T22:09:11.938Z,0.57
2023-02-27T22:11:40.999Z,0.93
2023-02-27T22:14:09.763Z,1.10
2023-02-27T22:16:37.677Z,0.60
2023-02-27T22:19:10.695Z,0.40
2023-02-27T22:21:38.762Z,0.40
2023-02-27T22:24:07.343Z,0.60
2023-02-27T22:26:35.407Z,0.40
2023-02-27T22:29:03.712Z,0.55
2023-02-27T22:31:34.008Z,0.57
2023-02-27T22:34:21.778Z,0.45
2023-02-27T22:36:52.554Z,0.40
2023-02-27T22:39:20.618Z,0.68
2023-02-27T22:41:48.374Z,0.50
2023-02-27T22:44:16.429Z,0.40
2023-02-27T22:46:47.321Z,0.60
2023-02-27T22:49:22.898Z,0.38
2023-02-27T22:51:52.153Z,0.40
2023-02-27T22:54:22.035Z,0.70
2023-02-27T22:56:51.900Z,0.55
2023-02-27T22:59:19.524Z,0.32
2023-02-27T23:01:48.604Z,0.38
2023-02-27T23:04:19.421Z,0.50
2023-02-27T23:06:46.856Z,0.47
2023-02-27T23:09:17.463Z,0.40
2023-02-27T23:11:45.882Z,0.40
2023-02-27T23:14:13.972Z,0.50
2023-02-27T23:16:45.612Z,0.40
2023-02-27T23:19:19.773Z,0.77
2023-02-27T23:21:47.602Z,0.55
2023-02-27T23:24:17.736Z,0.60
2023-02-27T23:26:48.129Z,0.73
2023-02-27T23:29:16.206Z,0.63
2023-02-27T23:31:43.723Z,0.80
2023-02-27T23:34:11.183Z,0.50
2023-02-27T23:36:39.256Z,0.60
2023-02-27T23:39:08.138Z,0.68
2023-02-27T23:41:35.989Z,0.63
2023-02-27T23:44:04.002Z,0.50
2023-02-27T23:46:31.842Z,0.52
2023-02-27T23:49:00.307Z,0.60
2023-02-27T23:51:30.440Z,0.70
2023-02-27T23:53:58.395Z,0.63
2023-02-27T23:56:29.908Z,0.60
2023-02-27T23:59:00.301Z,0.80
